sensor_id;sensor_type;location;lat;lon;timestamp;P1;durP1;ratioP1;P2;durP2;ratioP2
69327;SDS011;56472;52.114;5.492;2023-06-10T00:00:29;4.70;;;4.30;;
69327;SDS011;56472;52.114;5.492;2023-06-10T00:02:58;7.30;;;4.80;;
69327;SDS011;56472;52.114;5.492;2023-06-10T00:05:26;12.75;;;4.88;;
69327;SDS011;56472;52.114;5.492;2023-06-10T00:07:56;6.07;;;5.05;;
69327;SDS011;56472;52.114;5.492;2023-06-10T00:10:24;5.25;;;4.68;;
69327;SDS011;56472;52.114;5.492;2023-06-10T00:12:52;7.93;;;5.30;;
69327;SDS011;56472;52.114;5.492;2023-06-10T00:15:19;6.63;;;5.13;;
69327;SDS011;56472;52.114;5.492;2023-06-10T00:17:46;8.50;;;5.32;;
69327;SDS011;56472;52.114;5.492;2023-06-10T00:20:13;9.55;;;5.25;;
69327;SDS011;56472;52.114;5.492;2023-06-10T00:22:40;8.43;;;5.30;;
69327;SDS011;56472;52.114;5.492;2023-06-10T00:27:39;5.50;;;4.90;;
69327;SDS011;56472;52.114;5.492;2023-06-10T00:30:06;6.57;;;4.97;;
69327;SDS011;56472;52.114;5.492;2023-06-10T00:32:34;5.88;;;4.82;;
69327;SDS011;56472;52.114;5.492;2023-06-10T00:35:02;6.22;;;4.28;;
69327;SDS011;56472;52.114;5.492;2023-06-10T00:37:30;7.07;;;5.00;;
69327;SDS011;56472;52.114;5.492;2023-06-10T00:39:58;8.45;;;5.10;;
69327;SDS011;56472;52.114;5.492;2023-06-10T00:42:25;6.03;;;4.78;;
69327;SDS011;56472;52.114;5.492;2023-06-10T00:44:54;9.18;;;5.18;;
69327;SDS011;56472;52.114;5.492;2023-06-10T00:47:21;6.22;;;4.80;;
69327;SDS011;56472;52.114;5.492;2023-06-10T00:49:49;5.82;;;4.68;;
69327;SDS011;56472;52.114;5.492;2023-06-10T00:52:17;5.10;;;4.47;;
69327;SDS011;56472;52.114;5.492;2023-06-10T00:54:48;8.02;;;4.50;;
69327;SDS011;56472;52.114;5.492;2023-06-10T00:57:16;6.30;;;4.90;;
69327;SDS011;56472;52.114;5.492;2023-06-10T00:59:43;5.82;;;4.18;;
69327;SDS011;56472;52.114;5.492;2023-06-10T01:02:15;7.82;;;4.57;;
69327;SDS011;56472;52.114;5.492;2023-06-10T01:04:42;7.97;;;4.53;;
69327;SDS011;56472;52.114;5.492;2023-06-10T01:12:47;4.78;;;4.18;;
69327;SDS011;56472;52.114;5.492;2023-06-10T01:15:22;6.93;;;4.18;;
69327;SDS011;56472;52.114;5.492;2023-06-10T01:18:08;6.38;;;4.32;;
69327;SDS011;56472;52.114;5.492;2023-06-10T01:20:42;6.82;;;4.13;;
69327;SDS011;56472;52.114;5.492;2023-06-10T01:23:10;7.72;;;4.72;;
69327;SDS011;56472;52.114;5.492;2023-06-10T01:25:38;9.93;;;4.88;;
69327;SDS011;56472;52.114;5.492;2023-06-10T01:28:13;7.60;;;4.20;;
69327;SDS011;56472;52.114;5.492;2023-06-10T01:33:30;4.70;;;4.28;;
69327;SDS011;56472;52.114;5.492;2023-06-10T01:36:00;4.32;;;3.83;;
69327;SDS011;56472;52.114;5.492;2023-06-10T01:38:30;6.80;;;4.47;;
69327;SDS011;56472;52.114;5.492;2023-06-10T01:41:01;6.63;;;4.43;;
69327;SDS011;56472;52.114;5.492;2023-06-10T01:43:32;4.85;;;3.95;;
69327;SDS011;56472;52.114;5.492;2023-06-10T01:46:00;4.25;;;3.85;;
69327;SDS011;56472;52.114;5.492;2023-06-10T01:48:28;4.65;;;4.22;;
69327;SDS011;56472;52.114;5.492;2023-06-10T01:50:55;8.60;;;4.13;;
69327;SDS011;56472;52.114;5.492;2023-06-10T01:53:22;6.53;;;4.50;;
69327;SDS011;56472;52.114;5.492;2023-06-10T01:55:50;7.32;;;4.60;;
69327;SDS011;56472;52.114;5.492;2023-06-10T01:58:17;4.18;;;3.78;;
69327;SDS011;56472;52.114;5.492;2023-06-10T02:00:44;6.22;;;4.50;;
69327;SDS011;56472;52.114;5.492;2023-06-10T02:03:11;3.90;;;3.60;;
69327;SDS011;56472;52.114;5.492;2023-06-10T02:05:38;6.57;;;4.32;;
69327;SDS011;56472;52.114;5.492;2023-06-10T02:08:05;5.63;;;4.35;;
69327;SDS011;56472;52.114;5.492;2023-06-10T02:10:32;4.72;;;4.22;;
69327;SDS011;56472;52.114;5.492;2023-06-10T02:12:59;4.57;;;4.18;;
69327;SDS011;56472;52.114;5.492;2023-06-10T02:15:26;4.95;;;4.55;;
69327;SDS011;56472;52.114;5.492;2023-06-10T02:17:53;5.47;;;4.57;;
69327;SDS011;56472;52.114;5.492;2023-06-10T02:20:21;6.80;;;4.15;;
69327;SDS011;56472;52.114;5.492;2023-06-10T02:22:48;7.80;;;4.70;;
69327;SDS011;56472;52.114;5.492;2023-06-10T02:25:14;8.63;;;4.78;;
69327;SDS011;56472;52.114;5.492;2023-06-10T02:27:41;8.75;;;4.15;;
69327;SDS011;56472;52.114;5.492;2023-06-10T02:30:08;5.93;;;4.03;;
69327;SDS011;56472;52.114;5.492;2023-06-10T02:32:36;8.00;;;4.45;;
69327;SDS011;56472;52.114;5.492;2023-06-10T02:35:03;8.35;;;4.95;;
69327;SDS011;56472;52.114;5.492;2023-06-10T02:37:33;8.55;;;4.47;;
69327;SDS011;56472;52.114;5.492;2023-06-10T02:40:00;5.63;;;4.20;;
69327;SDS011;56472;52.114;5.492;2023-06-10T02:42:27;6.80;;;4.03;;
69327;SDS011;56472;52.114;5.492;2023-06-10T02:44:54;7.03;;;4.40;;
69327;SDS011;56472;52.114;5.492;2023-06-10T02:47:33;5.55;;;4.30;;
69327;SDS011;56472;52.114;5.492;2023-06-10T02:50:00;5.97;;;4.40;;
69327;SDS011;56472;52.114;5.492;2023-06-10T02:52:29;4.88;;;3.75;;
69327;SDS011;56472;52.114;5.492;2023-06-10T02:54:58;5.53;;;4.50;;
69327;SDS011;56472;52.114;5.492;2023-06-10T02:57:25;8.05;;;4.50;;
69327;SDS011;56472;52.114;5.492;2023-06-10T02:59:52;6.00;;;4.10;;
69327;SDS011;56472;52.114;5.492;2023-06-10T03:02:20;5.38;;;4.80;;
69327;SDS011;56472;52.114;5.492;2023-06-10T03:04:50;6.70;;;4.47;;
69327;SDS011;56472;52.114;5.492;2023-06-10T03:07:18;6.38;;;3.83;;
69327;SDS011;56472;52.114;5.492;2023-06-10T03:09:48;9.25;;;4.80;;
69327;SDS011;56472;52.114;5.492;2023-06-10T03:12:16;9.13;;;5.05;;
69327;SDS011;56472;52.114;5.492;2023-06-10T03:14:46;6.53;;;4.63;;
69327;SDS011;56472;52.114;5.492;2023-06-10T03:17:14;5.78;;;4.50;;
69327;SDS011;56472;52.114;5.492;2023-06-10T03:19:43;5.97;;;4.40;;
69327;SDS011;56472;52.114;5.492;2023-06-10T03:22:11;7.50;;;4.72;;
69327;SDS011;56472;52.114;5.492;2023-06-10T03:24:45;6.40;;;4.40;;
69327;SDS011;56472;52.114;5.492;2023-06-10T03:27:13;9.80;;;5.25;;
69327;SDS011;56472;52.114;5.492;2023-06-10T03:29:43;7.10;;;5.40;;
69327;SDS011;56472;52.114;5.492;2023-06-10T03:32:10;5.88;;;4.22;;
69327;SDS011;56472;52.114;5.492;2023-06-10T03:34:40;5.07;;;4.18;;
69327;SDS011;56472;52.114;5.492;2023-06-10T03:37:08;4.25;;;3.92;;
69327;SDS011;56472;52.114;5.492;2023-06-10T03:39:35;5.38;;;4.65;;
69327;SDS011;56472;52.114;5.492;2023-06-10T03:42:02;7.03;;;4.63;;
69327;SDS011;56472;52.114;5.492;2023-06-10T03:44:31;6.22;;;4.45;;
69327;SDS011;56472;52.114;5.492;2023-06-10T03:46:58;4.85;;;4.40;;
69327;SDS011;56472;52.114;5.492;2023-06-10T03:49:26;5.10;;;4.65;;
69327;SDS011;56472;52.114;5.492;2023-06-10T03:51:59;10.75;;;5.15;;
69327;SDS011;56472;52.114;5.492;2023-06-10T03:54:26;6.00;;;4.15;;
69327;SDS011;56472;52.114;5.492;2023-06-10T03:56:53;5.25;;;4.45;;
69327;SDS011;56472;52.114;5.492;2023-06-10T03:59:20;6.57;;;4.55;;
69327;SDS011;56472;52.114;5.492;2023-06-10T04:01:47;5.38;;;4.20;;
69327;SDS011;56472;52.114;5.492;2023-06-10T04:04:14;12.00;;;5.22;;
69327;SDS011;56472;52.114;5.492;2023-06-10T04:06:45;7.20;;;4.85;;
69327;SDS011;56472;52.114;5.492;2023-06-10T04:09:13;8.50;;;4.88;;
69327;SDS011;56472;52.114;5.492;2023-06-10T04:11:40;5.63;;;4.60;;
69327;SDS011;56472;52.114;5.492;2023-06-10T04:14:08;5.57;;;4.03;;
69327;SDS011;56472;52.114;5.492;2023-06-10T04:16:36;5.82;;;4.93;;
69327;SDS011;56472;52.114;5.492;2023-06-10T04:19:04;4.63;;;4.18;;
69327;SDS011;56472;52.114;5.492;2023-06-10T04:21:32;6.45;;;4.85;;
69327;SDS011;56472;52.114;5.492;2023-06-10T04:23:59;4.85;;;4.25;;
69327;SDS011;56472;52.114;5.492;2023-06-10T04:26:27;4.80;;;4.40;;
69327;SDS011;56472;52.114;5.492;2023-06-10T04:28:54;7.13;;;4.93;;
69327;SDS011;56472;52.114;5.492;2023-06-10T04:31:21;12.40;;;5.10;;
69327;SDS011;56472;52.114;5.492;2023-06-10T04:33:48;7.65;;;5.15;;
69327;SDS011;56472;52.114;5.492;2023-06-10T04:36:16;5.43;;;4.53;;
69327;SDS011;56472;52.114;5.492;2023-06-10T04:38:43;6.72;;;4.85;;
69327;SDS011;56472;52.114;5.492;2023-06-10T04:41:10;5.50;;;4.82;;
69327;SDS011;56472;52.114;5.492;2023-06-10T04:43:37;5.57;;;4.60;;
69327;SDS011;56472;52.114;5.492;2023-06-10T04:46:04;6.45;;;4.60;;
69327;SDS011;56472;52.114;5.492;2023-06-10T04:48:34;9.25;;;5.05;;
69327;SDS011;56472;52.114;5.492;2023-06-10T04:51:02;7.07;;;4.90;;
69327;SDS011;56472;52.114;5.492;2023-06-10T04:53:29;6.90;;;4.80;;
69327;SDS011;56472;52.114;5.492;2023-06-10T04:55:57;9.48;;;4.97;;
69327;SDS011;56472;52.114;5.492;2023-06-10T04:58:24;4.68;;;4.28;;
69327;SDS011;56472;52.114;5.492;2023-06-10T05:00:51;4.90;;;4.40;;
69327;SDS011;56472;52.114;5.492;2023-06-10T05:03:18;5.90;;;4.32;;
69327;SDS011;56472;52.114;5.492;2023-06-10T05:05:45;5.57;;;4.60;;
69327;SDS011;56472;52.114;5.492;2023-06-10T05:08:12;7.88;;;4.78;;
69327;SDS011;56472;52.114;5.492;2023-06-10T05:10:39;9.73;;;5.00;;
69327;SDS011;56472;52.114;5.492;2023-06-10T05:13:06;6.13;;;4.53;;
69327;SDS011;56472;52.114;5.492;2023-06-10T05:15:33;5.70;;;4.53;;
69327;SDS011;56472;52.114;5.492;2023-06-10T05:18:00;6.03;;;3.95;;
69327;SDS011;56472;52.114;5.492;2023-06-10T05:20:29;6.30;;;4.53;;
69327;SDS011;56472;52.114;5.492;2023-06-10T05:22:56;12.05;;;4.95;;
69327;SDS011;56472;52.114;5.492;2023-06-10T05:25:23;7.65;;;4.53;;
69327;SDS011;56472;52.114;5.492;2023-06-10T05:27:51;4.65;;;4.22;;
69327;SDS011;56472;52.114;5.492;2023-06-10T05:30:19;5.43;;;4.20;;
69327;SDS011;56472;52.114;5.492;2023-06-10T05:32:47;6.88;;;4.15;;
69327;SDS011;56472;52.114;5.492;2023-06-10T05:35:15;6.32;;;4.07;;
69327;SDS011;56472;52.114;5.492;2023-06-10T05:37:42;6.25;;;4.07;;
69327;SDS011;56472;52.114;5.492;2023-06-10T05:40:10;7.78;;;4.63;;
69327;SDS011;56472;52.114;5.492;2023-06-10T05:42:37;5.82;;;4.45;;
69327;SDS011;56472;52.114;5.492;2023-06-10T05:45:05;6.57;;;4.85;;
69327;SDS011;56472;52.114;5.492;2023-06-10T05:47:33;7.68;;;4.95;;
69327;SDS011;56472;52.114;5.492;2023-06-10T05:50:01;7.28;;;4.85;;
69327;SDS011;56472;52.114;5.492;2023-06-10T05:52:28;7.35;;;5.03;;
69327;SDS011;56472;52.114;5.492;2023-06-10T05:54:55;11.57;;;4.90;;
69327;SDS011;56472;52.114;5.492;2023-06-10T05:57:22;5.28;;;4.72;;
69327;SDS011;56472;52.114;5.492;2023-06-10T05:59:49;6.95;;;5.60;;
69327;SDS011;56472;52.114;5.492;2023-06-10T06:02:16;7.55;;;5.40;;
69327;SDS011;56472;52.114;5.492;2023-06-10T06:04:43;8.48;;;5.32;;
69327;SDS011;56472;52.114;5.492;2023-06-10T06:07:10;5.75;;;5.15;;
69327;SDS011;56472;52.114;5.492;2023-06-10T06:09:37;7.57;;;5.32;;
69327;SDS011;56472;52.114;5.492;2023-06-10T06:12:05;12.55;;;5.03;;
69327;SDS011;56472;52.114;5.492;2023-06-10T06:14:36;9.68;;;5.47;;
69327;SDS011;56472;52.114;5.492;2023-06-10T06:17:06;10.13;;;5.35;;
69327;SDS011;56472;52.114;5.492;2023-06-10T06:19:33;7.85;;;5.68;;
69327;SDS011;56472;52.114;5.492;2023-06-10T06:22:00;8.15;;;4.70;;
69327;SDS011;56472;52.114;5.492;2023-06-10T06:24:27;6.10;;;5.03;;
69327;SDS011;56472;52.114;5.492;2023-06-10T06:26:54;5.22;;;4.72;;
69327;SDS011;56472;52.114;5.492;2023-06-10T06:29:21;6.45;;;5.07;;
69327;SDS011;56472;52.114;5.492;2023-06-10T06:31:48;5.70;;;4.63;;
69327;SDS011;56472;52.114;5.492;2023-06-10T06:34:15;5.93;;;4.80;;
69327;SDS011;56472;52.114;5.492;2023-06-10T06:36:42;6.50;;;4.97;;
69327;SDS011;56472;52.114;5.492;2023-06-10T06:39:09;6.07;;;4.80;;
69327;SDS011;56472;52.114;5.492;2023-06-10T06:41:36;6.00;;;4.82;;
69327;SDS011;56472;52.114;5.492;2023-06-10T06:44:03;6.40;;;4.53;;
69327;SDS011;56472;52.114;5.492;2023-06-10T06:46:35;7.68;;;4.78;;
69327;SDS011;56472;52.114;5.492;2023-06-10T06:49:02;6.10;;;5.15;;
69327;SDS011;56472;52.114;5.492;2023-06-10T06:51:29;4.80;;;4.20;;
69327;SDS011;56472;52.114;5.492;2023-06-10T06:53:56;8.50;;;4.82;;
69327;SDS011;56472;52.114;5.492;2023-06-10T06:56:25;5.47;;;4.43;;
69327;SDS011;56472;52.114;5.492;2023-06-10T06:58:54;6.88;;;4.65;;
69327;SDS011;56472;52.114;5.492;2023-06-10T07:01:23;6.57;;;4.30;;
69327;SDS011;56472;52.114;5.492;2023-06-10T07:03:50;5.45;;;4.95;;
69327;SDS011;56472;52.114;5.492;2023-06-10T07:06:17;6.97;;;4.80;;
69327;SDS011;56472;52.114;5.492;2023-06-10T07:08:44;5.10;;;4.70;;
69327;SDS011;56472;52.114;5.492;2023-06-10T07:11:11;5.05;;;4.65;;
69327;SDS011;56472;52.114;5.492;2023-06-10T07:13:38;4.97;;;4.35;;
69327;SDS011;56472;52.114;5.492;2023-06-10T07:16:05;5.95;;;4.43;;
69327;SDS011;56472;52.114;5.492;2023-06-10T07:18:32;7.38;;;4.20;;
69327;SDS011;56472;52.114;5.492;2023-06-10T07:20:59;5.45;;;4.68;;
69327;SDS011;56472;52.114;5.492;2023-06-10T07:23:26;4.63;;;4.28;;
69327;SDS011;56472;52.114;5.492;2023-06-10T07:25:53;6.53;;;4.30;;
69327;SDS011;56472;52.114;5.492;2023-06-10T07:28:20;6.22;;;4.15;;
69327;SDS011;56472;52.114;5.492;2023-06-10T07:30:47;5.00;;;4.50;;
69327;SDS011;56472;52.114;5.492;2023-06-10T07:33:14;6.30;;;4.43;;
69327;SDS011;56472;52.114;5.492;2023-06-10T07:35:41;4.80;;;4.40;;
69327;SDS011;56472;52.114;5.492;2023-06-10T07:38:09;6.82;;;3.78;;
69327;SDS011;56472;52.114;5.492;2023-06-10T07:40:36;4.43;;;4.03;;
69327;SDS011;56472;52.114;5.492;2023-06-10T07:43:03;5.05;;;4.55;;
69327;SDS011;56472;52.114;5.492;2023-06-10T07:45:30;8.90;;;4.43;;
69327;SDS011;56472;52.114;5.492;2023-06-10T07:47:57;8.10;;;4.57;;
69327;SDS011;56472;52.114;5.492;2023-06-10T07:50:24;4.38;;;4.05;;
69327;SDS011;56472;52.114;5.492;2023-06-10T07:52:51;4.90;;;4.10;;
69327;SDS011;56472;52.114;5.492;2023-06-10T07:55:18;4.75;;;4.25;;
69327;SDS011;56472;52.114;5.492;2023-06-10T07:57:46;7.30;;;3.97;;
69327;SDS011;56472;52.114;5.492;2023-06-10T08:00:13;5.72;;;4.32;;
69327;SDS011;56472;52.114;5.492;2023-06-10T08:02:40;4.15;;;3.75;;
69327;SDS011;56472;52.114;5.492;2023-06-10T08:05:07;6.03;;;3.92;;
69327;SDS011;56472;52.114;5.492;2023-06-10T08:07:35;4.10;;;3.78;;
69327;SDS011;56472;52.114;5.492;2023-06-10T08:10:02;4.90;;;3.90;;
69327;SDS011;56472;52.114;5.492;2023-06-10T08:12:30;6.53;;;3.83;;
69327;SDS011;56472;52.114;5.492;2023-06-10T08:14:58;6.80;;;3.80;;
69327;SDS011;56472;52.114;5.492;2023-06-10T08:17:25;5.28;;;3.70;;
69327;SDS011;56472;52.114;5.492;2023-06-10T08:19:52;6.03;;;3.75;;
69327;SDS011;56472;52.114;5.492;2023-06-10T08:22:19;5.68;;;3.97;;
69327;SDS011;56472;52.114;5.492;2023-06-10T08:24:46;4.10;;;3.80;;
69327;SDS011;56472;52.114;5.492;2023-06-10T08:27:14;5.22;;;3.58;;
69327;SDS011;56472;52.114;5.492;2023-06-10T08:29:42;6.32;;;3.97;;
69327;SDS011;56472;52.114;5.492;2023-06-10T08:32:08;6.00;;;3.90;;
69327;SDS011;56472;52.114;5.492;2023-06-10T08:34:35;4.30;;;3.85;;
69327;SDS011;56472;52.114;5.492;2023-06-10T08:37:03;4.60;;;3.90;;
69327;SDS011;56472;52.114;5.492;2023-06-10T08:39:31;4.45;;;3.75;;
69327;SDS011;56472;52.114;5.492;2023-06-10T08:42:04;4.03;;;3.60;;
69327;SDS011;56472;52.114;5.492;2023-06-10T08:44:36;6.38;;;3.70;;
69327;SDS011;56472;52.114;5.492;2023-06-10T08:47:12;4.53;;;3.90;;
69327;SDS011;56472;52.114;5.492;2023-06-10T08:49:45;4.97;;;3.83;;
69327;SDS011;56472;52.114;5.492;2023-06-10T08:52:16;6.15;;;3.55;;
69327;SDS011;56472;52.114;5.492;2023-06-10T08:57:18;4.40;;;3.50;;
69327;SDS011;56472;52.114;5.492;2023-06-10T08:59:48;5.15;;;3.65;;
69327;SDS011;56472;52.114;5.492;2023-06-10T09:02:15;7.35;;;4.00;;
69327;SDS011;56472;52.114;5.492;2023-06-10T09:04:46;5.45;;;3.85;;
69327;SDS011;56472;52.114;5.492;2023-06-10T09:07:15;4.55;;;3.85;;
69327;SDS011;56472;52.114;5.492;2023-06-10T09:09:43;4.53;;;3.47;;
69327;SDS011;56472;52.114;5.492;2023-06-10T09:12:12;3.50;;;3.20;;
69327;SDS011;56472;52.114;5.492;2023-06-10T09:14:40;4.25;;;3.85;;
69327;SDS011;56472;52.114;5.492;2023-06-10T09:17:08;4.28;;;3.60;;
69327;SDS011;56472;52.114;5.492;2023-06-10T09:19:35;3.90;;;3.60;;
69327;SDS011;56472;52.114;5.492;2023-06-10T09:22:04;5.43;;;3.75;;
69327;SDS011;56472;52.114;5.492;2023-06-10T09:24:32;13.93;;;3.47;;
69327;SDS011;56472;52.114;5.492;2023-06-10T09:27:03;4.43;;;3.50;;
69327;SDS011;56472;52.114;5.492;2023-06-10T09:29:51;5.07;;;3.45;;
69327;SDS011;56472;52.114;5.492;2023-06-10T09:32:20;3.80;;;3.50;;
69327;SDS011;56472;52.114;5.492;2023-06-10T09:34:47;4.85;;;3.28;;
69327;SDS011;56472;52.114;5.492;2023-06-10T09:37:21;4.18;;;3.58;;
69327;SDS011;56472;52.114;5.492;2023-06-10T09:40:02;4.03;;;3.53;;
69327;SDS011;56472;52.114;5.492;2023-06-10T09:42:34;3.85;;;3.55;;
69327;SDS011;56472;52.114;5.492;2023-06-10T09:47:30;9.45;;;3.60;;
69327;SDS011;56472;52.114;5.492;2023-06-10T09:49:58;5.20;;;3.83;;
69327;SDS011;56472;52.114;5.492;2023-06-10T09:52:26;4.85;;;3.47;;
69327;SDS011;56472;52.114;5.492;2023-06-10T09:54:58;6.07;;;3.50;;
69327;SDS011;56472;52.114;5.492;2023-06-10T09:57:30;4.32;;;3.30;;
69327;SDS011;56472;52.114;5.492;2023-06-10T10:00:06;5.45;;;3.72;;
69327;SDS011;56472;52.114;5.492;2023-06-10T10:03:11;4.47;;;4.07;;
69327;SDS011;56472;52.114;5.492;2023-06-10T10:05:32;3.70;;;3.40;;
69327;SDS011;56472;52.114;5.492;2023-06-10T10:08:00;4.80;;;3.30;;
69327;SDS011;56472;52.114;5.492;2023-06-10T10:10:27;3.92;;;3.40;;
69327;SDS011;56472;52.114;5.492;2023-06-10T10:12:54;9.30;;;3.53;;
69327;SDS011;56472;52.114;5.492;2023-06-10T10:15:23;6.07;;;3.45;;
69327;SDS011;56472;52.114;5.492;2023-06-10T10:17:56;3.75;;;3.33;;
69327;SDS011;56472;52.114;5.492;2023-06-10T10:20:31;3.17;;;2.85;;
69327;SDS011;56472;52.114;5.492;2023-06-10T10:23:02;4.18;;;3.35;;
69327;SDS011;56472;52.114;5.492;2023-06-10T10:25:40;3.70;;;3.40;;
69327;SDS011;56472;52.114;5.492;2023-06-10T10:28:12;3.17;;;2.97;;
69327;SDS011;56472;52.114;5.492;2023-06-10T10:30:40;5.10;;;3.23;;
69327;SDS011;56472;52.114;5.492;2023-06-10T10:33:19;3.28;;;3.08;;
69327;SDS011;56472;52.114;5.492;2023-06-10T10:35:49;3.17;;;2.93;;
69327;SDS011;56472;52.114;5.492;2023-06-10T10:38:17;3.28;;;3.08;;
69327;SDS011;56472;52.114;5.492;2023-06-10T10:40:44;4.97;;;3.40;;
69327;SDS011;56472;52.114;5.492;2023-06-10T10:43:13;3.88;;;3.17;;
69327;SDS011;56472;52.114;5.492;2023-06-10T10:45:41;3.75;;;3.45;;
69327;SDS011;56472;52.114;5.492;2023-06-10T10:48:08;3.90;;;3.45;;
69327;SDS011;56472;52.114;5.492;2023-06-10T10:50:38;3.13;;;2.92;;
69327;SDS011;56472;52.114;5.492;2023-06-10T10:53:07;4.53;;;3.33;;
69327;SDS011;56472;52.114;5.492;2023-06-10T10:55:34;3.55;;;3.30;;
69327;SDS011;56472;52.114;5.492;2023-06-10T10:58:07;4.78;;;2.75;;
69327;SDS011;56472;52.114;5.492;2023-06-10T11:00:36;2.95;;;2.75;;
69327;SDS011;56472;52.114;5.492;2023-06-10T11:08:08;3.50;;;3.22;;
69327;SDS011;56472;52.114;5.492;2023-06-10T11:10:36;3.55;;;3.20;;
69327;SDS011;56472;52.114;5.492;2023-06-10T11:13:05;5.88;;;3.35;;
69327;SDS011;56472;52.114;5.492;2023-06-10T11:15:38;4.05;;;3.63;;
69327;SDS011;56472;52.114;5.492;2023-06-10T11:33:48;3.13;;;2.92;;
69327;SDS011;56472;52.114;5.492;2023-06-10T11:36:21;3.88;;;3.22;;
69327;SDS011;56472;52.114;5.492;2023-06-10T11:38:49;3.50;;;3.20;;
69327;SDS011;56472;52.114;5.492;2023-06-10T11:41:19;4.35;;;2.88;;
69327;SDS011;56472;52.114;5.492;2023-06-10T11:43:47;5.75;;;3.10;;
69327;SDS011;56472;52.114;5.492;2023-06-10T11:46:14;4.93;;;3.28;;
69327;SDS011;56472;52.114;5.492;2023-06-10T11:48:54;3.40;;;3.10;;
69327;SDS011;56472;52.114;5.492;2023-06-10T11:51:24;3.53;;;3.22;;
69327;SDS011;56472;52.114;5.492;2023-06-10T11:53:55;4.47;;;3.40;;
69327;SDS011;56472;52.114;5.492;2023-06-10T11:56:23;4.55;;;3.30;;
69327;SDS011;56472;52.114;5.492;2023-06-10T11:58:57;4.60;;;3.80;;
69327;SDS011;56472;52.114;5.492;2023-06-10T12:01:31;3.50;;;3.30;;
69327;SDS011;56472;52.114;5.492;2023-06-10T12:06:27;8.15;;;3.22;;
69327;SDS011;56472;52.114;5.492;2023-06-10T12:09:03;3.95;;;3.28;;
69327;SDS011;56472;52.114;5.492;2023-06-10T12:11:49;3.63;;;3.05;;
69327;SDS011;56472;52.114;5.492;2023-06-10T12:20:24;3.50;;;3.20;;
69327;SDS011;56472;52.114;5.492;2023-06-10T12:22:52;3.92;;;3.10;;
69327;SDS011;56472;52.114;5.492;2023-06-10T12:25:24;7.18;;;3.10;;
69327;SDS011;56472;52.114;5.492;2023-06-10T12:27:53;6.18;;;2.97;;
69327;SDS011;56472;52.114;5.492;2023-06-10T12:30:23;4.40;;;3.15;;
69327;SDS011;56472;52.114;5.492;2023-06-10T12:32:51;3.80;;;3.50;;
69327;SDS011;56472;52.114;5.492;2023-06-10T12:35:20;3.97;;;3.50;;
69327;SDS011;56472;52.114;5.492;2023-06-10T12:38:01;5.30;;;3.30;;
69327;SDS011;56472;52.114;5.492;2023-06-10T12:40:31;3.50;;;3.25;;
69327;SDS011;56472;52.114;5.492;2023-06-10T12:43:00;4.45;;;2.70;;
69327;SDS011;56472;52.114;5.492;2023-06-10T12:45:28;3.50;;;3.20;;
69327;SDS011;56472;52.114;5.492;2023-06-10T12:50:40;4.15;;;3.08;;
69327;SDS011;56472;52.114;5.492;2023-06-10T12:53:08;4.20;;;3.30;;
69327;SDS011;56472;52.114;5.492;2023-06-10T12:55:37;5.20;;;3.60;;
69327;SDS011;56472;52.114;5.492;2023-06-10T12:58:05;6.47;;;3.42;;
69327;SDS011;56472;52.114;5.492;2023-06-10T13:00:32;3.28;;;2.97;;
69327;SDS011;56472;52.114;5.492;2023-06-10T13:03:01;3.60;;;3.20;;
69327;SDS011;56472;52.114;5.492;2023-06-10T13:05:29;3.60;;;3.38;;
69327;SDS011;56472;52.114;5.492;2023-06-10T13:07:56;6.18;;;3.55;;
69327;SDS011;56472;52.114;5.492;2023-06-10T13:10:23;3.40;;;3.10;;
69327;SDS011;56472;52.114;5.492;2023-06-10T13:12:52;3.92;;;3.55;;
69327;SDS011;56472;52.114;5.492;2023-06-10T13:15:21;4.32;;;3.38;;
69327;SDS011;56472;52.114;5.492;2023-06-10T13:17:48;3.72;;;3.42;;
69327;SDS011;56472;52.114;5.492;2023-06-10T13:20:18;4.03;;;3.65;;
69327;SDS011;56472;52.114;5.492;2023-06-10T13:22:47;3.85;;;3.53;;
69327;SDS011;56472;52.114;5.492;2023-06-10T13:25:14;3.70;;;3.40;;
69327;SDS011;56472;52.114;5.492;2023-06-10T13:27:41;6.53;;;3.08;;
69327;SDS011;56472;52.114;5.492;2023-06-10T13:30:09;4.43;;;3.10;;
69327;SDS011;56472;52.114;5.492;2023-06-10T13:32:37;4.03;;;3.70;;
69327;SDS011;56472;52.114;5.492;2023-06-10T13:35:05;3.75;;;3.45;;
69327;SDS011;56472;52.114;5.492;2023-06-10T13:37:34;3.55;;;3.33;;
69327;SDS011;56472;52.114;5.492;2023-06-10T13:40:01;3.63;;;3.42;;
69327;SDS011;56472;52.114;5.492;2023-06-10T13:42:29;3.50;;;3.20;;
69327;SDS011;56472;52.114;5.492;2023-06-10T13:44:56;5.63;;;3.65;;
69327;SDS011;56472;52.114;5.492;2023-06-10T13:47:23;3.67;;;3.30;;
69327;SDS011;56472;52.114;5.492;2023-06-10T13:49:51;3.47;;;3.17;;
69327;SDS011;56472;52.114;5.492;2023-06-10T13:52:18;4.13;;;3.70;;
69327;SDS011;56472;52.114;5.492;2023-06-10T13:54:45;4.03;;;3.65;;
69327;SDS011;56472;52.114;5.492;2023-06-10T13:57:12;3.80;;;3.50;;
69327;SDS011;56472;52.114;5.492;2023-06-10T13:59:39;3.97;;;3.67;;
69327;SDS011;56472;52.114;5.492;2023-06-10T14:02:06;6.60;;;3.40;;
69327;SDS011;56472;52.114;5.492;2023-06-10T14:04:34;3.80;;;3.50;;
69327;SDS011;56472;52.114;5.492;2023-06-10T14:07:01;3.42;;;3.20;;
69327;SDS011;56472;52.114;5.492;2023-06-10T14:09:28;3.60;;;3.30;;
69327;SDS011;56472;52.114;5.492;2023-06-10T14:11:55;4.50;;;3.17;;
69327;SDS011;56472;52.114;5.492;2023-06-10T14:14:22;3.35;;;3.00;;
69327;SDS011;56472;52.114;5.492;2023-06-10T14:16:49;3.70;;;3.38;;
69327;SDS011;56472;52.114;5.492;2023-06-10T14:19:16;4.05;;;3.58;;
69327;SDS011;56472;52.114;5.492;2023-06-10T14:21:43;3.40;;;3.20;;
69327;SDS011;56472;52.114;5.492;2023-06-10T14:24:10;3.10;;;3.00;;
69327;SDS011;56472;52.114;5.492;2023-06-10T14:26:38;3.97;;;3.47;;
69327;SDS011;56472;52.114;5.492;2023-06-10T14:29:05;5.63;;;3.40;;
69327;SDS011;56472;52.114;5.492;2023-06-10T14:31:32;3.92;;;3.42;;
69327;SDS011;56472;52.114;5.492;2023-06-10T14:33:59;3.58;;;3.28;;
69327;SDS011;56472;52.114;5.492;2023-06-10T14:36:26;3.40;;;2.90;;
69327;SDS011;56472;52.114;5.492;2023-06-10T14:38:53;3.55;;;3.22;;
69327;SDS011;56472;52.114;5.492;2023-06-10T14:41:20;3.80;;;3.08;;
69327;SDS011;56472;52.114;5.492;2023-06-10T14:43:48;3.65;;;3.33;;
69327;SDS011;56472;52.114;5.492;2023-06-10T14:46:15;4.78;;;3.25;;
69327;SDS011;56472;52.114;5.492;2023-06-10T14:48:42;4.13;;;3.30;;
69327;SDS011;56472;52.114;5.492;2023-06-10T14:51:09;3.20;;;3.00;;
69327;SDS011;56472;52.114;5.492;2023-06-10T14:53:36;6.90;;;3.03;;
69327;SDS011;56472;52.114;5.492;2023-06-10T14:56:03;5.43;;;3.33;;
69327;SDS011;56472;52.114;5.492;2023-06-10T14:58:31;7.55;;;3.40;;
69327;SDS011;56472;52.114;5.492;2023-06-10T15:00:58;4.88;;;3.33;;
69327;SDS011;56472;52.114;5.492;2023-06-10T15:03:25;3.30;;;3.00;;
69327;SDS011;56472;52.114;5.492;2023-06-10T15:05:52;4.57;;;3.20;;
69327;SDS011;56472;52.114;5.492;2023-06-10T15:08:18;3.72;;;3.35;;
69327;SDS011;56472;52.114;5.492;2023-06-10T15:10:45;4.00;;;3.50;;
69327;SDS011;56472;52.114;5.492;2023-06-10T15:13:14;4.07;;;3.35;;
69327;SDS011;56472;52.114;5.492;2023-06-10T15:15:41;3.38;;;3.05;;
69327;SDS011;56472;52.114;5.492;2023-06-10T15:18:08;5.20;;;3.67;;
69327;SDS011;56472;52.114;5.492;2023-06-10T15:20:35;3.20;;;3.00;;
69327;SDS011;56472;52.114;5.492;2023-06-10T15:23:02;4.00;;;3.15;;
69327;SDS011;56472;52.114;5.492;2023-06-10T15:25:29;3.42;;;3.13;;
69327;SDS011;56472;52.114;5.492;2023-06-10T15:27:57;3.75;;;3.35;;
69327;SDS011;56472;52.114;5.492;2023-06-10T15:30:25;5.18;;;3.20;;
69327;SDS011;56472;52.114;5.492;2023-06-10T15:32:52;3.15;;;2.95;;
69327;SDS011;56472;52.114;5.492;2023-06-10T15:35:19;3.13;;;2.80;;
69327;SDS011;56472;52.114;5.492;2023-06-10T15:37:46;4.38;;;2.92;;
69327;SDS011;56472;52.114;5.492;2023-06-10T15:40:13;3.83;;;3.08;;
69327;SDS011;56472;52.114;5.492;2023-06-10T15:42:40;2.80;;;2.70;;